sensor_id;sensor_type;location;lat;lon;timestamp;P1;durP1;ratioP1;P2;durP2;ratioP2
60612;SDS011;46443;59.792;17.626;2022-11-15T00:00:11;3.33;;;1.80;;
60612;SDS011;46443;59.792;17.626;2022-11-15T00:02:37;3.63;;;2.03;;
60612;SDS011;46443;59.792;17.626;2022-11-15T00:05:03;3.80;;;2.23;;
60612;SDS011;46443;59.792;17.626;2022-11-15T00:07:29;5.03;;;2.03;;
60612;SDS011;46443;59.792;17.626;2022-11-15T00:09:55;3.20;;;1.63;;
60612;SDS011;46443;59.792;17.626;2022-11-15T00:12:21;2.90;;;1.70;;
60612;SDS011;46443;59.792;17.626;2022-11-15T00:14:47;3.20;;;1.80;;
60612;SDS011;46443;59.792;17.626;2022-11-15T00:17:13;3.60;;;2.00;;
60612;SDS011;46443;59.792;17.626;2022-11-15T00:19:39;3.20;;;1.90;;
60612;SDS011;46443;59.792;17.626;2022-11-15T00:22:05;2.60;;;1.77;;
60612;SDS011;46443;59.792;17.626;2022-11-15T00:24:31;4.00;;;1.80;;
60612;SDS011;46443;59.792;17.626;2022-11-15T00:26:57;2.83;;;1.73;;
60612;SDS011;46443;59.792;17.626;2022-11-15T00:29:24;3.97;;;2.03;;
60612;SDS011;46443;59.792;17.626;2022-11-15T00:31:50;3.70;;;2.33;;
60612;SDS011;46443;59.792;17.626;2022-11-15T00:34:16;2.70;;;1.80;;
60612;SDS011;46443;59.792;17.626;2022-11-15T00:36:42;3.23;;;1.87;;
60612;SDS011;46443;59.792;17.626;2022-11-15T00:39:08;3.80;;;2.00;;
60612;SDS011;46443;59.792;17.626;2022-11-15T00:41:34;3.57;;;2.00;;
60612;SDS011;46443;59.792;17.626;2022-11-15T00:44:00;4.60;;;2.00;;
60612;SDS011;46443;59.792;17.626;2022-11-15T00:46:26;3.53;;;1.90;;
60612;SDS011;46443;59.792;17.626;2022-11-15T00:48:52;2.87;;;1.80;;
60612;SDS011;46443;59.792;17.626;2022-11-15T00:51:18;3.77;;;2.00;;
60612;SDS011;46443;59.792;17.626;2022-11-15T00:53:44;4.23;;;2.37;;
60612;SDS011;46443;59.792;17.626;2022-11-15T00:56:10;4.57;;;2.40;;
60612;SDS011;46443;59.792;17.626;2022-11-15T00:58:36;4.73;;;2.10;;
60612;SDS011;46443;59.792;17.626;2022-11-15T01:01:06;4.20;;;2.43;;
60612;SDS011;46443;59.792;17.626;2022-11-15T01:03:32;4.97;;;2.60;;
60612;SDS011;46443;59.792;17.626;2022-11-15T01:05:59;4.37;;;2.20;;
60612;SDS011;46443;59.792;17.626;2022-11-15T01:08:25;4.60;;;2.50;;
60612;SDS011;46443;59.792;17.626;2022-11-15T01:10:51;4.80;;;2.47;;
60612;SDS011;46443;59.792;17.626;2022-11-15T01:13:17;7.70;;;2.97;;
60612;SDS011;46443;59.792;17.626;2022-11-15T01:15:43;5.73;;;2.40;;
60612;SDS011;46443;59.792;17.626;2022-11-15T01:18:09;5.57;;;2.90;;
60612;SDS011;46443;59.792;17.626;2022-11-15T01:20:39;7.97;;;3.00;;
60612;SDS011;46443;59.792;17.626;2022-11-15T01:23:05;5.15;;;3.03;;
60612;SDS011;46443;59.792;17.626;2022-11-15T01:25:31;4.73;;;2.80;;
60612;SDS011;46443;59.792;17.626;2022-11-15T01:27:57;4.57;;;2.43;;
60612;SDS011;46443;59.792;17.626;2022-11-15T01:30:23;5.00;;;2.67;;
60612;SDS011;46443;59.792;17.626;2022-11-15T01:32:49;6.37;;;2.70;;
60612;SDS011;46443;59.792;17.626;2022-11-15T01:35:15;5.73;;;2.97;;
60612;SDS011;46443;59.792;17.626;2022-11-15T01:37:41;5.17;;;2.83;;
60612;SDS011;46443;59.792;17.626;2022-11-15T01:40:08;4.60;;;2.57;;
60612;SDS011;46443;59.792;17.626;2022-11-15T01:42:34;5.83;;;2.97;;
60612;SDS011;46443;59.792;17.626;2022-11-15T01:45:00;5.50;;;2.80;;
60612;SDS011;46443;59.792;17.626;2022-11-15T01:47:28;4.43;;;2.63;;
60612;SDS011;46443;59.792;17.626;2022-11-15T01:49:57;4.40;;;2.55;;
60612;SDS011;46443;59.792;17.626;2022-11-15T01:54:53;4.00;;;2.13;;
60612;SDS011;46443;59.792;17.626;2022-11-15T01:57:21;4.10;;;2.33;;
60612;SDS011;46443;59.792;17.626;2022-11-15T01:59:47;4.00;;;2.60;;
60612;SDS011;46443;59.792;17.626;2022-11-15T02:02:13;4.93;;;2.77;;
60612;SDS011;46443;59.792;17.626;2022-11-15T02:04:41;4.50;;;2.57;;
60612;SDS011;46443;59.792;17.626;2022-11-15T02:07:07;4.70;;;2.93;;
60612;SDS011;46443;59.792;17.626;2022-11-15T02:09:35;5.23;;;2.87;;
60612;SDS011;46443;59.792;17.626;2022-11-15T02:12:01;4.50;;;2.80;;
60612;SDS011;46443;59.792;17.626;2022-11-15T02:14:28;5.70;;;3.07;;
60612;SDS011;46443;59.792;17.626;2022-11-15T02:16:59;5.83;;;3.10;;
60612;SDS011;46443;59.792;17.626;2022-11-15T02:27:17;4.67;;;2.67;;
60612;SDS011;46443;59.792;17.626;2022-11-15T02:32:22;4.67;;;2.40;;
60612;SDS011;46443;59.792;17.626;2022-11-15T02:35:02;3.83;;;2.30;;
60612;SDS011;46443;59.792;17.626;2022-11-15T02:37:39;5.07;;;2.70;;
60612;SDS011;46443;59.792;17.626;2022-11-15T02:42:40;5.50;;;2.80;;
60612;SDS011;46443;59.792;17.626;2022-11-15T02:45:28;5.03;;;3.00;;
60612;SDS011;46443;59.792;17.626;2022-11-15T02:47:56;4.83;;;2.73;;
60612;SDS011;46443;59.792;17.626;2022-11-15T02:50:26;5.00;;;2.80;;
60612;SDS011;46443;59.792;17.626;2022-11-15T02:52:53;6.17;;;3.20;;
60612;SDS011;46443;59.792;17.626;2022-11-15T02:58:02;5.33;;;3.27;;
60612;SDS011;46443;59.792;17.626;2022-11-15T03:00:37;5.10;;;3.33;;
60612;SDS011;46443;59.792;17.626;2022-11-15T03:13:24;4.93;;;2.80;;
60612;SDS011;46443;59.792;17.626;2022-11-15T03:16:27;6.88;;;3.30;;
60612;SDS011;46443;59.792;17.626;2022-11-15T03:18:47;6.20;;;3.23;;
60612;SDS011;46443;59.792;17.626;2022-11-15T03:21:18;7.67;;;3.70;;
60612;SDS011;46443;59.792;17.626;2022-11-15T03:23:45;6.50;;;3.40;;
60612;SDS011;46443;59.792;17.626;2022-11-15T03:26:13;6.60;;;3.40;;
60612;SDS011;46443;59.792;17.626;2022-11-15T03:28:41;8.67;;;3.37;;
60612;SDS011;46443;59.792;17.626;2022-11-15T03:31:08;6.53;;;3.30;;
60612;SDS011;46443;59.792;17.626;2022-11-15T03:33:55;6.13;;;3.27;;
60612;SDS011;46443;59.792;17.626;2022-11-15T03:36:23;6.70;;;3.50;;
60612;SDS011;46443;59.792;17.626;2022-11-15T03:38:52;6.47;;;3.87;;
60612;SDS011;46443;59.792;17.626;2022-11-15T03:41:30;6.65;;;3.90;;
60612;SDS011;46443;59.792;17.626;2022-11-15T03:44:01;7.87;;;3.53;;
60612;SDS011;46443;59.792;17.626;2022-11-15T03:46:33;7.13;;;3.80;;
60612;SDS011;46443;59.792;17.626;2022-11-15T03:49:12;9.50;;;3.80;;
60612;SDS011;46443;59.792;17.626;2022-11-15T03:51:39;6.73;;;4.03;;
60612;SDS011;46443;59.792;17.626;2022-11-15T03:54:06;8.00;;;4.33;;
60612;SDS011;46443;59.792;17.626;2022-11-15T03:56:32;8.83;;;4.27;;
60612;SDS011;46443;59.792;17.626;2022-11-15T03:58:58;6.77;;;4.17;;
60612;SDS011;46443;59.792;17.626;2022-11-15T04:01:24;8.37;;;4.27;;
60612;SDS011;46443;59.792;17.626;2022-11-15T04:03:50;9.10;;;4.37;;
60612;SDS011;46443;59.792;17.626;2022-11-15T04:06:16;7.67;;;4.67;;
60612;SDS011;46443;59.792;17.626;2022-11-15T04:08:42;9.33;;;4.13;;
60612;SDS011;46443;59.792;17.626;2022-11-15T04:11:08;10.77;;;4.07;;
60612;SDS011;46443;59.792;17.626;2022-11-15T04:13:34;7.30;;;4.00;;
60612;SDS011;46443;59.792;17.626;2022-11-15T04:16:00;6.73;;;3.70;;
60612;SDS011;46443;59.792;17.626;2022-11-15T04:18:26;8.60;;;4.20;;
60612;SDS011;46443;59.792;17.626;2022-11-15T04:20:52;8.00;;;4.27;;
60612;SDS011;46443;59.792;17.626;2022-11-15T04:23:53;6.60;;;3.67;;
60612;SDS011;46443;59.792;17.626;2022-11-15T04:26:20;8.37;;;4.47;;
60612;SDS011;46443;59.792;17.626;2022-11-15T04:28:46;9.53;;;3.83;;
60612;SDS011;46443;59.792;17.626;2022-11-15T04:31:31;7.10;;;3.63;;
60612;SDS011;46443;59.792;17.626;2022-11-15T04:33:57;8.20;;;3.70;;
60612;SDS011;46443;59.792;17.626;2022-11-15T04:36:24;6.30;;;3.40;;
60612;SDS011;46443;59.792;17.626;2022-11-15T04:39:08;8.03;;;4.00;;
60612;SDS011;46443;59.792;17.626;2022-11-15T04:41:34;7.43;;;3.60;;
60612;SDS011;46443;59.792;17.626;2022-11-15T04:44:01;7.83;;;3.73;;
60612;SDS011;46443;59.792;17.626;2022-11-15T04:46:27;9.77;;;3.53;;
60612;SDS011;46443;59.792;17.626;2022-11-15T04:48:53;9.10;;;3.73;;
60612;SDS011;46443;59.792;17.626;2022-11-15T04:51:19;10.97;;;4.00;;
60612;SDS011;46443;59.792;17.626;2022-11-15T04:53:45;9.40;;;3.63;;
60612;SDS011;46443;59.792;17.626;2022-11-15T04:56:11;6.87;;;3.37;;
60612;SDS011;46443;59.792;17.626;2022-11-15T04:58:37;7.57;;;3.03;;
60612;SDS011;46443;59.792;17.626;2022-11-15T05:01:13;6.90;;;2.83;;
60612;SDS011;46443;59.792;17.626;2022-11-15T05:03:40;6.87;;;3.00;;
60612;SDS011;46443;59.792;17.626;2022-11-15T05:06:24;6.57;;;3.27;;
60612;SDS011;46443;59.792;17.626;2022-11-15T05:08:50;7.60;;;3.20;;
60612;SDS011;46443;59.792;17.626;2022-11-15T05:11:16;4.80;;;2.33;;
60612;SDS011;46443;59.792;17.626;2022-11-15T05:13:43;8.73;;;2.37;;
60612;SDS011;46443;59.792;17.626;2022-11-15T05:16:09;7.57;;;2.53;;
60612;SDS011;46443;59.792;17.626;2022-11-15T05:18:35;5.90;;;2.30;;
60612;SDS011;46443;59.792;17.626;2022-11-15T05:21:04;6.73;;;2.50;;
60612;SDS011;46443;59.792;17.626;2022-11-15T05:23:30;5.13;;;1.85;;
60612;SDS011;46443;59.792;17.626;2022-11-15T05:26:00;5.63;;;2.07;;
60612;SDS011;46443;59.792;17.626;2022-11-15T05:28:26;5.28;;;2.15;;
60612;SDS011;46443;59.792;17.626;2022-11-15T05:30:52;7.70;;;2.30;;
60612;SDS011;46443;59.792;17.626;2022-11-15T05:33:18;4.37;;;2.10;;
60612;SDS011;46443;59.792;17.626;2022-11-15T05:35:48;8.63;;;2.07;;
60612;SDS011;46443;59.792;17.626;2022-11-15T05:38:16;5.53;;;1.83;;
60612;SDS011;46443;59.792;17.626;2022-11-15T05:40:42;4.73;;;1.90;;
60612;SDS011;46443;59.792;17.626;2022-11-15T05:43:08;4.80;;;2.00;;
60612;SDS011;46443;59.792;17.626;2022-11-15T05:45:35;5.97;;;1.80;;
60612;SDS011;46443;59.792;17.626;2022-11-15T05:48:03;5.33;;;1.60;;
60612;SDS011;46443;59.792;17.626;2022-11-15T05:50:30;5.87;;;2.00;;
60612;SDS011;46443;59.792;17.626;2022-11-15T05:52:57;4.33;;;1.70;;
60612;SDS011;46443;59.792;17.626;2022-11-15T05:55:23;5.53;;;1.53;;
60612;SDS011;46443;59.792;17.626;2022-11-15T05:57:49;4.83;;;1.50;;
60612;SDS011;46443;59.792;17.626;2022-11-15T06:00:15;4.37;;;1.90;;
60612;SDS011;46443;59.792;17.626;2022-11-15T06:02:41;2.90;;;1.53;;
60612;SDS011;46443;59.792;17.626;2022-11-15T06:05:07;3.27;;;1.50;;
60612;SDS011;46443;59.792;17.626;2022-11-15T06:07:33;7.00;;;1.93;;
60612;SDS011;46443;59.792;17.626;2022-11-15T06:09:59;3.83;;;1.50;;
60612;SDS011;46443;59.792;17.626;2022-11-15T06:12:25;5.37;;;1.80;;
60612;SDS011;46443;59.792;17.626;2022-11-15T06:14:51;2.47;;;1.40;;
60612;SDS011;46443;59.792;17.626;2022-11-15T06:17:17;3.70;;;1.90;;
60612;SDS011;46443;59.792;17.626;2022-11-15T06:19:43;2.73;;;1.50;;
60612;SDS011;46443;59.792;17.626;2022-11-15T06:22:09;4.43;;;2.10;;
60612;SDS011;46443;59.792;17.626;2022-11-15T06:24:35;2.13;;;1.30;;
60612;SDS011;46443;59.792;17.626;2022-11-15T06:27:01;3.87;;;1.70;;
60612;SDS011;46443;59.792;17.626;2022-11-15T06:29:27;3.63;;;1.60;;
60612;SDS011;46443;59.792;17.626;2022-11-15T06:31:53;7.93;;;1.97;;
60612;SDS011;46443;59.792;17.626;2022-11-15T06:34:19;3.53;;;1.83;;
60612;SDS011;46443;59.792;17.626;2022-11-15T06:36:45;5.47;;;2.03;;
60612;SDS011;46443;59.792;17.626;2022-11-15T06:39:11;3.67;;;2.03;;
60612;SDS011;46443;59.792;17.626;2022-11-15T06:41:37;3.50;;;1.70;;
60612;SDS011;46443;59.792;17.626;2022-11-15T06:44:03;4.77;;;2.00;;
60612;SDS011;46443;59.792;17.626;2022-11-15T06:46:29;5.43;;;2.20;;
60612;SDS011;46443;59.792;17.626;2022-11-15T06:48:55;8.33;;;2.17;;
60612;SDS011;46443;59.792;17.626;2022-11-15T06:51:21;4.23;;;2.00;;
60612;SDS011;46443;59.792;17.626;2022-11-15T06:53:47;4.53;;;2.17;;
60612;SDS011;46443;59.792;17.626;2022-11-15T06:56:13;4.80;;;2.07;;
60612;SDS011;46443;59.792;17.626;2022-11-15T06:58:39;6.13;;;2.20;;
60612;SDS011;46443;59.792;17.626;2022-11-15T07:01:07;7.57;;;2.70;;
60612;SDS011;46443;59.792;17.626;2022-11-15T07:03:37;8.07;;;2.30;;
60612;SDS011;46443;59.792;17.626;2022-11-15T07:06:04;4.50;;;1.73;;
60612;SDS011;46443;59.792;17.626;2022-11-15T07:08:30;4.73;;;1.97;;
60612;SDS011;46443;59.792;17.626;2022-11-15T07:11:03;4.37;;;1.93;;
60612;SDS011;46443;59.792;17.626;2022-11-15T07:13:30;5.60;;;1.80;;
60612;SDS011;46443;59.792;17.626;2022-11-15T07:16:07;5.37;;;2.07;;
60612;SDS011;46443;59.792;17.626;2022-11-15T07:18:37;3.13;;;1.67;;
60612;SDS011;46443;59.792;17.626;2022-11-15T07:21:03;4.53;;;2.03;;
60612;SDS011;46443;59.792;17.626;2022-11-15T07:23:30;4.33;;;1.80;;
60612;SDS011;46443;59.792;17.626;2022-11-15T07:25:56;4.53;;;2.30;;
60612;SDS011;46443;59.792;17.626;2022-11-15T07:28:23;4.63;;;2.10;;
60612;SDS011;46443;59.792;17.626;2022-11-15T07:30:49;3.90;;;2.07;;
60612;SDS011;46443;59.792;17.626;2022-11-15T07:33:15;4.63;;;2.20;;
60612;SDS011;46443;59.792;17.626;2022-11-15T07:35:41;5.57;;;2.20;;
60612;SDS011;46443;59.792;17.626;2022-11-15T07:38:07;4.30;;;2.20;;
60612;SDS011;46443;59.792;17.626;2022-11-15T07:40:34;3.53;;;1.77;;
60612;SDS011;46443;59.792;17.626;2022-11-15T07:43:04;4.10;;;1.90;;
60612;SDS011;46443;59.792;17.626;2022-11-15T07:45:30;3.20;;;1.53;;
60612;SDS011;46443;59.792;17.626;2022-11-15T07:47:58;3.07;;;1.80;;
60612;SDS011;46443;59.792;17.626;2022-11-15T07:50:25;3.00;;;1.30;;
60612;SDS011;46443;59.792;17.626;2022-11-15T07:52:54;3.17;;;1.60;;
60612;SDS011;46443;59.792;17.626;2022-11-15T07:55:21;2.47;;;1.40;;
60612;SDS011;46443;59.792;17.626;2022-11-15T07:57:47;2.97;;;1.67;;
60612;SDS011;46443;59.792;17.626;2022-11-15T08:00:14;3.17;;;1.50;;
60612;SDS011;46443;59.792;17.626;2022-11-15T08:02:40;3.70;;;1.53;;
60612;SDS011;46443;59.792;17.626;2022-11-15T08:05:06;4.03;;;1.53;;
60612;SDS011;46443;59.792;17.626;2022-11-15T08:07:32;3.67;;;1.57;;
60612;SDS011;46443;59.792;17.626;2022-11-15T08:09:58;2.60;;;1.60;;
60612;SDS011;46443;59.792;17.626;2022-11-15T08:12:26;2.73;;;1.70;;
60612;SDS011;46443;59.792;17.626;2022-11-15T08:14:53;3.30;;;1.53;;
60612;SDS011;46443;59.792;17.626;2022-11-15T08:17:20;3.63;;;1.43;;
60612;SDS011;46443;59.792;17.626;2022-11-15T08:19:46;2.20;;;1.40;;
60612;SDS011;46443;59.792;17.626;2022-11-15T08:22:12;3.13;;;1.60;;
60612;SDS011;46443;59.792;17.626;2022-11-15T08:24:38;2.60;;;1.37;;
60612;SDS011;46443;59.792;17.626;2022-11-15T08:27:05;3.63;;;1.50;;
60612;SDS011;46443;59.792;17.626;2022-11-15T08:29:39;3.20;;;1.27;;
60612;SDS011;46443;59.792;17.626;2022-11-15T08:32:06;4.23;;;1.77;;
60612;SDS011;46443;59.792;17.626;2022-11-15T08:34:32;4.43;;;1.33;;
60612;SDS011;46443;59.792;17.626;2022-11-15T08:36:58;4.97;;;1.60;;
60612;SDS011;46443;59.792;17.626;2022-11-15T08:39:24;4.00;;;1.47;;
60612;SDS011;46443;59.792;17.626;2022-11-15T08:41:50;1.70;;;1.30;;
60612;SDS011;46443;59.792;17.626;2022-11-15T08:44:16;2.47;;;1.47;;
60612;SDS011;46443;59.792;17.626;2022-11-15T08:46:43;4.47;;;1.90;;
60612;SDS011;46443;59.792;17.626;2022-11-15T08:49:10;3.67;;;1.70;;
60612;SDS011;46443;59.792;17.626;2022-11-15T08:51:38;3.73;;;1.90;;
60612;SDS011;46443;59.792;17.626;2022-11-15T08:54:04;2.27;;;1.53;;
60612;SDS011;46443;59.792;17.626;2022-11-15T08:56:30;5.47;;;1.70;;
60612;SDS011;46443;59.792;17.626;2022-11-15T08:58:56;5.27;;;1.60;;
60612;SDS011;46443;59.792;17.626;2022-11-15T09:01:22;6.10;;;2.03;;
60612;SDS011;46443;59.792;17.626;2022-11-15T09:03:48;2.97;;;1.40;;
60612;SDS011;46443;59.792;17.626;2022-11-15T09:06:14;3.30;;;1.40;;
60612;SDS011;46443;59.792;17.626;2022-11-15T09:08:40;3.37;;;1.40;;
60612;SDS011;46443;59.792;17.626;2022-11-15T09:11:07;2.20;;;1.37;;
60612;SDS011;46443;59.792;17.626;2022-11-15T09:13:34;2.90;;;1.50;;
60612;SDS011;46443;59.792;17.626;2022-11-15T09:16:02;2.77;;;1.47;;
60612;SDS011;46443;59.792;17.626;2022-11-15T09:18:28;2.27;;;1.33;;
60612;SDS011;46443;59.792;17.626;2022-11-15T09:20:55;2.13;;;1.20;;
60612;SDS011;46443;59.792;17.626;2022-11-15T09:23:21;2.90;;;1.50;;
60612;SDS011;46443;59.792;17.626;2022-11-15T09:25:48;3.60;;;1.30;;
60612;SDS011;46443;59.792;17.626;2022-11-15T09:28:14;2.30;;;1.23;;
60612;SDS011;46443;59.792;17.626;2022-11-15T09:30:40;3.37;;;1.30;;
60612;SDS011;46443;59.792;17.626;2022-11-15T09:33:09;1.77;;;0.90;;
60612;SDS011;46443;59.792;17.626;2022-11-15T09:35:35;2.53;;;1.10;;
60612;SDS011;46443;59.792;17.626;2022-11-15T09:38:02;2.93;;;1.37;;
60612;SDS011;46443;59.792;17.626;2022-11-15T09:40:29;3.77;;;1.37;;
60612;SDS011;46443;59.792;17.626;2022-11-15T09:53:03;2.93;;;1.10;;
60612;SDS011;46443;59.792;17.626;2022-11-15T09:58:44;2.60;;;1.20;;
60612;SDS011;46443;59.792;17.626;2022-11-15T10:01:20;4.00;;;1.20;;
60612;SDS011;46443;59.792;17.626;2022-11-15T10:03:48;3.10;;;1.30;;
60612;SDS011;46443;59.792;17.626;2022-11-15T10:06:24;1.90;;;1.03;;
60612;SDS011;46443;59.792;17.626;2022-11-15T10:11:23;2.93;;;1.40;;
60612;SDS011;46443;59.792;17.626;2022-11-15T10:13:51;3.40;;;1.53;;
60612;SDS011;46443;59.792;17.626;2022-11-15T10:21:17;2.92;;;1.20;;
60612;SDS011;46443;59.792;17.626;2022-11-15T10:23:45;2.80;;;1.30;;
60612;SDS011;46443;59.792;17.626;2022-11-15T10:26:16;1.63;;;0.93;;
60612;SDS011;46443;59.792;17.626;2022-11-15T10:28:42;1.13;;;1.00;;
60612;SDS011;46443;59.792;17.626;2022-11-15T10:31:25;3.00;;;1.10;;
60612;SDS011;46443;59.792;17.626;2022-11-15T10:33:56;3.67;;;1.30;;
60612;SDS011;46443;59.792;17.626;2022-11-15T10:36:25;2.93;;;1.20;;
60612;SDS011;46443;59.792;17.626;2022-11-15T10:44:01;1.00;;;0.90;;
60612;SDS011;46443;59.792;17.626;2022-11-15T10:46:27;1.87;;;0.90;;
60612;SDS011;46443;59.792;17.626;2022-11-15T10:48:53;2.67;;;1.30;;
60612;SDS011;46443;59.792;17.626;2022-11-15T10:51:33;2.35;;;1.15;;
60612;SDS011;46443;59.792;17.626;2022-11-15T10:54:02;2.13;;;1.10;;
60612;SDS011;46443;59.792;17.626;2022-11-15T10:56:28;2.33;;;1.03;;
60612;SDS011;46443;59.792;17.626;2022-11-15T10:58:55;2.57;;;1.63;;
60612;SDS011;46443;59.792;17.626;2022-11-15T11:01:22;3.87;;;1.37;;
60612;SDS011;46443;59.792;17.626;2022-11-15T11:04:05;2.70;;;1.20;;
60612;SDS011;46443;59.792;17.626;2022-11-15T11:06:45;3.37;;;1.20;;
60612;SDS011;46443;59.792;17.626;2022-11-15T11:09:20;3.00;;;1.40;;
60612;SDS011;46443;59.792;17.626;2022-11-15T11:11:48;2.03;;;1.40;;
60612;SDS011;46443;59.792;17.626;2022-11-15T11:14:20;3.43;;;1.27;;
60612;SDS011;46443;59.792;17.626;2022-11-15T11:16:48;2.40;;;1.03;;
60612;SDS011;46443;59.792;17.626;2022-11-15T11:19:20;5.07;;;1.40;;
60612;SDS011;46443;59.792;17.626;2022-11-15T11:24:21;1.73;;;1.13;;
60612;SDS011;46443;59.792;17.626;2022-11-15T11:27:05;1.87;;;1.17;;
60612;SDS011;46443;59.792;17.626;2022-11-15T11:37:31;3.03;;;1.43;;
60612;SDS011;46443;59.792;17.626;2022-11-15T11:42:51;2.13;;;1.10;;
60612;SDS011;46443;59.792;17.626;2022-11-15T11:48:04;4.47;;;1.23;;
60612;SDS011;46443;59.792;17.626;2022-11-15T11:50:33;2.63;;;1.30;;
60612;SDS011;46443;59.792;17.626;2022-11-15T11:55:51;4.43;;;1.30;;
60612;SDS011;46443;59.792;17.626;2022-11-15T11:58:23;1.83;;;0.95;;
60612;SDS011;46443;59.792;17.626;2022-11-15T12:00:54;1.93;;;1.17;;
60612;SDS011;46443;59.792;17.626;2022-11-15T12:03:28;1.90;;;1.10;;
60612;SDS011;46443;59.792;17.626;2022-11-15T12:06:02;2.90;;;1.50;;
60612;SDS011;46443;59.792;17.626;2022-11-15T12:11:37;3.43;;;1.30;;
60612;SDS011;46443;59.792;17.626;2022-11-15T12:14:05;2.57;;;1.20;;
60612;SDS011;46443;59.792;17.626;2022-11-15T12:16:36;3.50;;;1.23;;
60612;SDS011;46443;59.792;17.626;2022-11-15T12:19:04;4.33;;;1.50;;
60612;SDS011;46443;59.792;17.626;2022-11-15T12:21:39;3.93;;;1.27;;
60612;SDS011;46443;59.792;17.626;2022-11-15T12:24:18;1.77;;;1.10;;
60612;SDS011;46443;59.792;17.626;2022-11-15T12:26:47;1.30;;;1.00;;
60612;SDS011;46443;59.792;17.626;2022-11-15T12:29:16;1.08;;;0.95;;
60612;SDS011;46443;59.792;17.626;2022-11-15T12:31:45;1.55;;;0.98;;
60612;SDS011;46443;59.792;17.626;2022-11-15T12:36:40;4.10;;;1.37;;
60612;SDS011;46443;59.792;17.626;2022-11-15T12:39:08;1.47;;;1.10;;
60612;SDS011;46443;59.792;17.626;2022-11-15T12:41:39;1.20;;;1.03;;
60612;SDS011;46443;59.792;17.626;2022-11-15T12:44:10;3.10;;;1.27;;
60612;SDS011;46443;59.792;17.626;2022-11-15T13:04:46;2.47;;;1.30;;
60612;SDS011;46443;59.792;17.626;2022-11-15T13:09:57;3.83;;;1.33;;
60612;SDS011;46443;59.792;17.626;2022-11-15T13:14:53;3.85;;;1.38;;
60612;SDS011;46443;59.792;17.626;2022-11-15T13:17:22;1.87;;;0.97;;
60612;SDS011;46443;59.792;17.626;2022-11-15T13:20:33;2.00;;;1.40;;
60612;SDS011;46443;59.792;17.626;2022-11-15T13:22:42;3.90;;;1.40;;
60612;SDS011;46443;59.792;17.626;2022-11-15T13:27:57;3.23;;;1.37;;
60612;SDS011;46443;59.792;17.626;2022-11-15T13:30:24;2.83;;;1.27;;
60612;SDS011;46443;59.792;17.626;2022-11-15T13:32:51;2.50;;;1.50;;
60612;SDS011;46443;59.792;17.626;2022-11-15T13:35:21;4.33;;;1.67;;
60612;SDS011;46443;59.792;17.626;2022-11-15T13:37:48;7.27;;;1.90;;
60612;SDS011;46443;59.792;17.626;2022-11-15T13:42:55;3.23;;;1.53;;
60612;SDS011;46443;59.792;17.626;2022-11-15T13:45:21;4.50;;;1.40;;
60612;SDS011;46443;59.792;17.626;2022-11-15T13:47:53;3.50;;;1.50;;
60612;SDS011;46443;59.792;17.626;2022-11-15T13:50:21;2.93;;;1.50;;
60612;SDS011;46443;59.792;17.626;2022-11-15T13:52:48;1.77;;;1.10;;
60612;SDS011;46443;59.792;17.626;2022-11-15T13:55:21;1.27;;;1.13;;
60612;SDS011;46443;59.792;17.626;2022-11-15T13:57:49;3.17;;;1.20;;
60612;SDS011;46443;59.792;17.626;2022-11-15T14:03:46;1.80;;;1.20;;
60612;SDS011;46443;59.792;17.626;2022-11-15T14:06:04;1.95;;;1.30;;
60612;SDS011;46443;59.792;17.626;2022-11-15T14:08:36;1.77;;;1.10;;
60612;SDS011;46443;59.792;17.626;2022-11-15T14:11:07;3.27;;;1.27;;
60612;SDS011;46443;59.792;17.626;2022-11-15T14:13:33;1.30;;;1.20;;
60612;SDS011;46443;59.792;17.626;2022-11-15T14:16:12;3.07;;;1.50;;
60612;SDS011;46443;59.792;17.626;2022-11-15T14:18:48;1.40;;;1.30;;
60612;SDS011;46443;59.792;17.626;2022-11-15T14:21:14;3.03;;;1.20;;
60612;SDS011;46443;59.792;17.626;2022-11-15T14:23:40;2.63;;;0.97;;
60612;SDS011;46443;59.792;17.626;2022-11-15T14:26:10;1.50;;;1.10;;
60612;SDS011;46443;59.792;17.626;2022-11-15T14:28:37;1.20;;;1.10;;
60612;SDS011;46443;59.792;17.626;2022-11-15T14:31:10;1.37;;;1.07;;
60612;SDS011;46443;59.792;17.626;2022-11-15T14:33:40;2.70;;;1.10;;
60612;SDS011;46443;59.792;17.626;2022-11-15T14:38:35;2.03;;;1.20;;
60612;SDS011;46443;59.792;17.626;2022-11-15T14:41:01;2.87;;;1.30;;
60612;SDS011;46443;59.792;17.626;2022-11-15T14:43:27;2.60;;;1.13;;
60612;SDS011;46443;59.792;17.626;2022-11-15T14:45:53;2.13;;;1.40;;
60612;SDS011;46443;59.792;17.626;2022-11-15T14:48:19;2.13;;;1.00;;
60612;SDS011;46443;59.792;17.626;2022-11-15T14:50:47;2.20;;;1.20;;
60612;SDS011;46443;59.792;17.626;2022-11-15T14:53:16;4.43;;;1.23;;
60612;SDS011;46443;59.792;17.626;2022-11-15T14:55:43;2.10;;;1.30;;
60612;SDS011;46443;59.792;17.626;2022-11-15T14:58:09;2.43;;;1.30;;
60612;SDS011;46443;59.792;17.626;2022-11-15T15:00:36;2.13;;;1.30;;
60612;SDS011;46443;59.792;17.626;2022-11-15T15:03:03;2.20;;;1.20;;
60612;SDS011;46443;59.792;17.626;2022-11-15T15:07:55;3.23;;;1.40;;
60612;SDS011;46443;59.792;17.626;2022-11-15T15:10:21;3.70;;;1.50;;
60612;SDS011;46443;59.792;17.626;2022-11-15T15:12:47;7.07;;;1.77;;
60612;SDS011;46443;59.792;17.626;2022-11-15T15:15:24;3.07;;;1.40;;
60612;SDS011;46443;59.792;17.626;2022-11-15T15:17:50;3.27;;;1.40;;
60612;SDS011;46443;59.792;17.626;2022-11-15T15:20:16;2.73;;;1.40;;
60612;SDS011;46443;59.792;17.626;2022-11-15T15:22:42;2.80;;;1.30;;
60612;SDS011;46443;59.792;17.626;2022-11-15T15:25:22;4.07;;;1.63;;
60612;SDS011;46443;59.792;17.626;2022-11-15T15:27:50;3.13;;;1.60;;
60612;SDS011;46443;59.792;17.626;2022-11-15T15:30:16;2.93;;;1.33;;
60612;SDS011;46443;59.792;17.626;2022-11-15T15:32:43;2.90;;;1.43;;
60612;SDS011;46443;59.792;17.626;2022-11-15T15:35:11;4.73;;;1.40;;
60612;SDS011;46443;59.792;17.626;2022-11-15T15:37:37;8.33;;;1.50;;
60612;SDS011;46443;59.792;17.626;2022-11-15T15:40:08;3.60;;;1.70;;
60612;SDS011;46443;59.792;17.626;2022-11-15T15:42:37;3.57;;;1.60;;
60612;SDS011;46443;59.792;17.626;2022-11-15T15:45:03;3.57;;;1.63;;
60612;SDS011;46443;59.792;17.626;2022-11-15T15:47:30;3.50;;;1.60;;
60612;SDS011;46443;59.792;17.626;2022-11-15T15:49:56;2.33;;;1.43;;
60612;SDS011;46443;59.792;17.626;2022-11-15T15:52:22;3.73;;;1.77;;
60612;SDS011;46443;59.792;17.626;2022-11-15T15:54:48;2.33;;;1.40;;
60612;SDS011;46443;59.792;17.626;2022-11-15T15:57:14;3.27;;;1.30;;
60612;SDS011;46443;59.792;17.626;2022-11-15T15:59:40;2.53;;;1.50;;
60612;SDS011;46443;59.792;17.626;2022-11-15T16:02:08;1.73;;;1.20;;
60612;SDS011;46443;59.792;17.626;2022-11-15T16:04:36;3.60;;;1.70;;
60612;SDS011;46443;59.792;17.626;2022-11-15T16:07:02;3.00;;;1.60;;
60612;SDS011;46443;59.792;17.626;2022-11-15T16:09:29;2.70;;;1.47;;
60612;SDS011;46443;59.792;17.626;2022-11-15T16:12:14;2.63;;;1.60;;
60612;SDS011;46443;59.792;17.626;2022-11-15T16:14:41;3.30;;;1.43;;
60612;SDS011;46443;59.792;17.626;2022-11-15T16:18:08;3.57;;;1.33;;
60612;SDS011;46443;59.792;17.626;2022-11-15T16:20:02;4.23;;;1.50;;
60612;SDS011;46443;59.792;17.626;2022-11-15T16:22:28;1.63;;;1.50;;
60612;SDS011;46443;59.792;17.626;2022-11-15T16:24:55;1.40;;;1.27;;
60612;SDS011;46443;59.792;17.626;2022-11-15T16:27:21;3.77;;;1.87;;
60612;SDS011;46443;59.792;17.626;2022-11-15T16:29:47;4.70;;;1.63;;
60612;SDS011;46443;59.792;17.626;2022-11-15T16:32:13;3.20;;;1.80;;
60612;SDS011;46443;59.792;17.626;2022-11-15T16:34:39;2.33;;;1.40;;